createdAt,value
2022-07-30T00:01:18.314Z,18.93
2022-07-30T00:03:45.506Z,19.03
2022-07-30T00:06:12.724Z,18.84
2022-07-30T00:08:39.797Z,18.80
2022-07-30T00:11:06.979Z,18.80
2022-07-30T00:13:34.098Z,18.70
2022-07-30T00:16:01.150Z,18.67
2022-07-30T00:18:28.205Z,18.77
2022-07-30T00:20:55.252Z,18.68
2022-07-30T00:23:23.572Z,18.82
2022-07-30T00:25:50.659Z,18.74
2022-07-30T00:28:17.674Z,18.53
2022-07-30T00:30:44.747Z,18.39
2022-07-30T00:33:11.863Z,18.33
2022-07-30T00:35:39.692Z,18.29
2022-07-30T00:38:06.745Z,18.25
2022-07-30T00:40:33.940Z,18.25
2022-07-30T00:43:01.000Z,18.14
2022-07-30T00:45:28.184Z,18.08
2022-07-30T00:47:55.343Z,18.05
2022-07-30T00:50:22.379Z,17.95
2022-07-30T00:52:49.542Z,17.78
2022-07-30T00:55:16.708Z,17.84
2022-07-30T00:57:44.653Z,17.76
2022-07-30T01:00:15.195Z,17.67
2022-07-30T01:02:42.383Z,17.59
2022-07-30T01:05:10.083Z,17.52
2022-07-30T01:07:37.536Z,17.37
2022-07-30T01:10:06.843Z,17.49
2022-07-30T01:12:34.094Z,17.35
2022-07-30T01:15:04.869Z,17.35
2022-07-30T01:17:32.694Z,16.94
2022-07-30T01:20:04.286Z,17.20
2022-07-30T01:22:48.270Z,17.30
2022-07-30T01:25:21.166Z,17.30
2022-07-30T01:28:03.134Z,17.24
2022-07-30T01:30:34.844Z,17.36
2022-07-30T01:33:04.634Z,17.35
2022-07-30T01:35:33.733Z,17.11
2022-07-30T01:38:03.985Z,17.20
2022-07-30T01:40:32.148Z,17.14
2022-07-30T01:43:03.078Z,17.08
2022-07-30T01:45:35.671Z,17.04
2022-07-30T01:48:11.017Z,16.80
2022-07-30T01:50:42.584Z,16.93
2022-07-30T01:53:15.520Z,16.87
2022-07-30T01:55:43.813Z,16.62
2022-07-30T01:58:13.324Z,16.86
2022-07-30T02:00:43.550Z,16.68
2022-07-30T02:03:11.500Z,16.65
2022-07-30T02:05:42.824Z,16.61
2022-07-30T02:08:18.585Z,16.65
2022-07-30T02:10:52.689Z,16.26
2022-07-30T02:13:26.902Z,16.67
2022-07-30T02:15:59.558Z,16.65
2022-07-30T02:18:39.653Z,16.67
2022-07-30T02:21:10.162Z,16.66
2022-07-30T02:23:43.725Z,16.64
2022-07-30T02:26:18.517Z,16.37
2022-07-30T02:28:49.697Z,16.51
2022-07-30T02:31:20.918Z,16.43
2022-07-30T02:33:50.270Z,16.31
2022-07-30T02:36:19.180Z,16.32
2022-07-30T02:38:50.635Z,16.07
2022-07-30T02:41:22.093Z,16.33
2022-07-30T02:43:51.570Z,16.37
2022-07-30T02:46:22.718Z,16.27
2022-07-30T02:49:11.759Z,16.26
2022-07-30T02:51:42.133Z,16.21
2022-07-30T02:54:10.328Z,16.11
2022-07-30T02:56:42.293Z,16.05
2022-07-30T02:59:11.568Z,16.07
2022-07-30T03:01:39.180Z,16.00
2022-07-30T03:04:08.490Z,15.92
2022-07-30T03:06:36.317Z,15.87
2022-07-30T03:09:04.529Z,15.54
2022-07-30T03:11:33.036Z,15.70
2022-07-30T03:14:01.457Z,15.75
2022-07-30T03:16:30.661Z,15.73
2022-07-30T03:19:02.273Z,15.68
2022-07-30T03:21:35.624Z,15.69
2022-07-30T03:24:05.013Z,15.63
2022-07-30T03:26:34.855Z,15.64
2022-07-30T03:29:03.098Z,15.44
2022-07-30T03:31:36.392Z,15.44
2022-07-30T03:34:09.071Z,15.32
2022-07-30T03:36:38.360Z,15.26
2022-07-30T03:39:07.110Z,15.46
2022-07-30T03:41:36.314Z,15.47
2022-07-30T03:44:07.720Z,15.08
2022-07-30T03:46:39.027Z,15.45
2022-07-30T03:49:06.762Z,15.35
2022-07-30T03:51:34.707Z,15.31
2022-07-30T03:54:02.900Z,15.33
2022-07-30T03:56:39.482Z,15.26
2022-07-30T03:59:10.304Z,14.90
2022-07-30T04:01:40.894Z,15.15
2022-07-30T04:04:15.851Z,15.19
2022-07-30T04:06:43.208Z,15.16
2022-07-30T04:09:12.340Z,15.22
2022-07-30T04:11:40.823Z,15.22
2022-07-30T04:14:10.839Z,15.10
2022-07-30T04:16:59.470Z,15.05
2022-07-30T04:19:39.317Z,15.04
2022-07-30T04:22:08.661Z,15.10
2022-07-30T04:24:39.354Z,14.94
2022-07-30T04:27:06.840Z,15.00
2022-07-30T04:29:34.712Z,15.13
2022-07-30T04:32:02.313Z,15.08
2022-07-30T04:35:04.945Z,14.94
2022-07-30T04:37:54.849Z,15.02
2022-07-30T04:40:22.060Z,15.01
2022-07-30T04:42:49.458Z,15.08
2022-07-30T04:45:20.054Z,15.02
2022-07-30T04:47:53.707Z,15.12
2022-07-30T04:50:26.211Z,15.05
2022-07-30T04:52:55.944Z,15.17
2022-07-30T04:55:29.008Z,15.17
2022-07-30T04:57:57.414Z,15.18
2022-07-30T05:00:24.541Z,15.25
2022-07-30T05:02:55.118Z,15.26
2022-07-30T05:05:24.194Z,15.55
2022-07-30T05:07:52.420Z,15.17
2022-07-30T05:10:19.907Z,15.36
2022-07-30T05:12:47.065Z,15.45
2022-07-30T05:15:17.430Z,15.70
2022-07-30T05:17:45.162Z,15.70
2022-07-30T05:20:14.223Z,15.80
2022-07-30T05:23:00.400Z,15.74
2022-07-30T05:25:27.588Z,15.92
2022-07-30T05:28:01.408Z,15.85
2022-07-30T05:30:29.261Z,16.05
2022-07-30T05:32:59.145Z,16.25
2022-07-30T05:35:31.500Z,16.25
2022-07-30T05:38:01.782Z,16.25
2022-07-30T05:40:34.767Z,16.28
2022-07-30T05:43:24.396Z,16.41
2022-07-30T05:45:51.458Z,16.59
2022-07-30T05:48:18.634Z,16.48
2022-07-30T05:50:45.689Z,16.47
2022-07-30T05:53:12.701Z,16.60
2022-07-30T05:55:58.740Z,16.77
2022-07-30T05:58:53.270Z,16.93
2022-07-30T06:01:32.433Z,17.05
2022-07-30T06:04:04.998Z,17.13
2022-07-30T06:06:54.809Z,17.28
2022-07-30T06:09:36.945Z,17.49
2022-07-30T06:12:05.339Z,17.53
2022-07-30T06:14:32.643Z,17.69
2022-07-30T06:17:00.492Z,17.83
2022-07-30T06:19:34.894Z,17.85
2022-07-30T06:22:06.160Z,17.76
2022-07-30T06:24:39.327Z,18.19
2022-07-30T06:27:21.900Z,18.49
2022-07-30T06:29:48.941Z,18.40
2022-07-30T06:32:17.292Z,18.50
2022-07-30T06:34:44.333Z,18.19
2022-07-30T06:37:11.593Z,18.42
2022-07-30T06:39:58.020Z,18.44
2022-07-30T06:42:39.742Z,18.79
2022-07-30T06:45:30.615Z,18.93
2022-07-30T06:48:14.550Z,18.73
2022-07-30T06:50:42.488Z,19.18
2022-07-30T06:53:09.758Z,19.06
2022-07-30T06:55:58.486Z,19.05
2022-07-30T06:58:32.192Z,19.49
2022-07-30T07:01:23.450Z,19.42
2022-07-30T07:03:50.745Z,19.73
2022-07-30T07:06:18.481Z,19.84
2022-07-30T07:08:45.553Z,19.94
2022-07-30T07:11:16.256Z,20.04
2022-07-30T07:13:54.137Z,20.13
2022-07-30T07:16:31.824Z,20.38
2022-07-30T07:19:02.428Z,20.47
2022-07-30T07:21:29.714Z,20.36
2022-07-30T07:23:56.874Z,20.29
2022-07-30T07:26:51.275Z,20.55
2022-07-30T07:29:18.523Z,20.41
2022-07-30T07:32:06.962Z,20.57
2022-07-30T07:34:32.764Z,20.72
2022-07-30T07:37:00.152Z,20.81
2022-07-30T07:39:27.468Z,20.96
2022-07-30T07:41:55.400Z,20.99
2022-07-30T07:44:25.088Z,20.98
2022-07-30T07:46:52.311Z,20.78
2022-07-30T07:49:20.573Z,20.80
2022-07-30T07:51:50.749Z,21.07
2022-07-30T07:54:22.529Z,21.17
2022-07-30T07:56:57.524Z,21.46
2022-07-30T07:59:41.047Z,21.30
2022-07-30T08:02:26.478Z,21.17
2022-07-30T08:05:02.097Z,21.43
2022-07-30T08:07:42.706Z,21.59
2022-07-30T08:10:16.154Z,21.65
2022-07-30T08:12:49.529Z,21.88
2022-07-30T08:15:31.525Z,21.82
2022-07-30T08:18:24.480Z,22.08
2022-07-30T08:21:15.481Z,22.34
2022-07-30T08:23:42.772Z,22.77
2022-07-30T08:26:10.141Z,23.00
2022-07-30T08:28:37.269Z,23.00
2022-07-30T08:31:07.026Z,23.04
2022-07-30T08:33:34.708Z,22.97
2022-07-30T08:36:04.109Z,23.05
2022-07-30T08:38:36.891Z,23.20
2022-07-30T08:41:04.134Z,23.17
2022-07-30T08:43:31.783Z,22.91
2022-07-30T08:46:00.416Z,22.98
2022-07-30T08:48:52.171Z,22.90
2022-07-30T08:51:20.652Z,23.33
2022-07-30T08:54:06.614Z,23.90
2022-07-30T08:56:34.771Z,24.04
2022-07-30T08:59:02.687Z,23.60
2022-07-30T09:01:29.757Z,24.24
2022-07-30T09:03:57.707Z,24.06
2022-07-30T09:06:27.448Z,23.68
2022-07-30T09:08:54.661Z,23.72
2022-07-30T09:11:22.669Z,23.30
2022-07-30T09:13:50.879Z,23.13
2022-07-30T09:16:23.363Z,23.10
2022-07-30T09:19:00.126Z,23.74
2022-07-30T09:21:29.164Z,24.08
2022-07-30T09:24:28.388Z,24.00
2022-07-30T09:27:13.981Z,24.10
2022-07-30T09:29:59.710Z,23.97
2022-07-30T09:32:57.594Z,23.74
2022-07-30T09:35:43.420Z,23.71
2022-07-30T09:38:11.425Z,23.91
2022-07-30T09:41:17.258Z,23.69
2022-07-30T09:44:08.087Z,23.89
2022-07-30T09:46:42.606Z,23.65
2022-07-30T09:49:18.683Z,24.02
2022-07-30T09:51:56.663Z,24.38
2022-07-30T09:54:51.187Z,24.34
2022-07-30T09:57:26.370Z,24.38
2022-07-30T10:00:01.160Z,24.71
2022-07-30T10:02:33.059Z,24.77
2022-07-30T10:05:20.342Z,24.71
2022-07-30T10:07:52.330Z,24.67
2022-07-30T10:10:25.762Z,24.72
2022-07-30T10:12:58.298Z,24.19
2022-07-30T10:15:30.129Z,23.98
2022-07-30T10:18:00.478Z,23.87
2022-07-30T10:20:47.389Z,23.51
2022-07-30T10:23:34.537Z,23.64
2022-07-30T10:26:23.471Z,23.89
2022-07-30T10:29:09.233Z,24.42
2022-07-30T10:31:48.942Z,24.73
2022-07-30T10:34:19.229Z,25.22
2022-07-30T10:36:54.866Z,25.53
2022-07-30T10:39:27.524Z,25.76
2022-07-30T10:42:34.269Z,25.27
2022-07-30T10:45:19.707Z,25.08
2022-07-30T10:47:49.032Z,24.81
2022-07-30T10:50:22.467Z,24.64
2022-07-30T10:52:50.733Z,24.37
2022-07-30T10:55:37.166Z,24.42
2022-07-30T10:58:12.216Z,24.39
2022-07-30T11:00:51.652Z,24.87
2022-07-30T11:03:41.390Z,25.51
2022-07-30T11:06:15.468Z,25.55
2022-07-30T11:08:48.505Z,25.65
2022-07-30T11:11:59.505Z,25.74
2022-07-30T11:14:09.010Z,25.45
2022-07-30T11:16:37.112Z,25.40
2022-07-30T11:19:55.190Z,25.63
2022-07-30T11:22:31.302Z,25.47
2022-07-30T11:25:00.324Z,25.39
2022-07-30T11:27:37.129Z,25.35
2022-07-30T11:30:26.004Z,25.83
2022-07-30T11:32:57.250Z,25.59
2022-07-30T11:35:34.506Z,25.38
2022-07-30T11:38:09.394Z,25.70
2022-07-30T11:40:40.234Z,26.15
2022-07-30T11:43:17.030Z,25.98
2022-07-30T11:45:48.739Z,26.25
2022-07-30T11:48:18.339Z,25.72
2022-07-30T11:50:47.199Z,25.36
2022-07-30T11:53:17.867Z,25.27
2022-07-30T11:55:51.023Z,25.15
2022-07-30T11:58:39.681Z,25.04
2022-07-30T12:01:12.717Z,24.60
2022-07-30T12:03:45.381Z,24.86
2022-07-30T12:06:17.957Z,25.57
2022-07-30T12:08:49.611Z,26.12
2022-07-30T12:11:16.635Z,26.16
2022-07-30T12:13:54.552Z,26.18
2022-07-30T12:16:21.791Z,26.17
2022-07-30T12:18:48.902Z,26.02
2022-07-30T12:21:16.465Z,26.16
2022-07-30T12:23:56.565Z,26.49
2022-07-30T12:26:26.658Z,26.20
2022-07-30T12:28:56.444Z,25.69
2022-07-30T12:31:24.050Z,26.02
2022-07-30T12:33:51.196Z,25.91
2022-07-30T12:36:31.038Z,26.14
2022-07-30T12:38:59.503Z,26.07
2022-07-30T12:41:43.108Z,25.95
2022-07-30T12:44:10.224Z,25.74
2022-07-30T12:46:40.653Z,26.00
2022-07-30T12:49:21.284Z,25.97
2022-07-30T12:52:00.114Z,26.14
2022-07-30T12:54:27.838Z,26.00
2022-07-30T12:56:59.515Z,26.24
2022-07-30T12:59:27.551Z,26.49
2022-07-30T13:01:57.089Z,26.41
2022-07-30T13:04:24.685Z,26.57
2022-07-30T13:07:09.071Z,26.79
2022-07-30T13:09:36.718Z,27.10
2022-07-30T13:12:04.418Z,26.71
2022-07-30T13:14:31.642Z,26.19
2022-07-30T13:16:58.851Z,26.46
2022-07-30T13:19:26.661Z,26.51
2022-07-30T13:21:53.833Z,26.78
2022-07-30T13:24:21.166Z,26.70
2022-07-30T13:27:01.163Z,26.84
2022-07-30T13:29:28.264Z,26.73
2022-07-30T13:31:55.420Z,26.37
2022-07-30T13:34:22.513Z,26.54
2022-07-30T13:36:49.586Z,26.52
2022-07-30T13:39:16.760Z,26.94
2022-07-30T13:41:43.797Z,27.02
2022-07-30T13:44:10.842Z,26.81
2022-07-30T13:46:41.060Z,26.42
2022-07-30T13:49:08.481Z,26.27
2022-07-30T13:51:35.599Z,26.02
2022-07-30T13:54:02.897Z,26.60
2022-07-30T13:56:29.892Z,26.34
2022-07-30T13:58:56.961Z,26.41
2022-07-30T14:01:24.063Z,26.35
2022-07-30T14:03:51.233Z,26.29
2022-07-30T14:06:19.082Z,26.34
2022-07-30T14:08:46.249Z,25.93
2022-07-30T14:11:13.613Z,26.08
2022-07-30T14:13:40.772Z,26.47
2022-07-30T14:16:28.489Z,26.68
2022-07-30T14:18:57.312Z,26.77
2022-07-30T14:21:25.013Z,27.21
2022-07-30T14:23:52.057Z,27.70
2022-07-30T14:26:19.131Z,27.29
2022-07-30T14:28:46.205Z,27.08
2022-07-30T14:31:13.205Z,26.98
2022-07-30T14:33:40.256Z,26.67
2022-07-30T14:36:07.391Z,26.75
2022-07-30T14:38:34.409Z,27.01
2022-07-30T14:41:01.459Z,27.11
2022-07-30T14:43:28.489Z,26.88
2022-07-30T14:45:55.490Z,27.02
2022-07-30T14:48:22.503Z,27.27
2022-07-30T14:51:12.129Z,27.52
2022-07-30T14:53:37.574Z,27.55
2022-07-30T14:56:04.799Z,27.70
2022-07-30T14:58:31.846Z,27.63
2022-07-30T15:00:59.727Z,27.33
2022-07-30T15:03:44.462Z,27.68
2022-07-30T15:06:12.894Z,27.57
2022-07-30T15:08:39.989Z,28.00
2022-07-30T15:11:08.197Z,28.43
2022-07-30T15:13:37.130Z,28.97
2022-07-30T15:16:16.684Z,28.92
2022-07-30T15:18:43.691Z,28.84
2022-07-30T15:21:12.364Z,28.30
2022-07-30T15:23:39.400Z,28.33
2022-07-30T15:26:06.608Z,28.55
2022-07-30T15:28:33.665Z,28.78
2022-07-30T15:31:00.892Z,28.80
2022-07-30T15:33:27.901Z,29.11
2022-07-30T15:35:54.900Z,28.59
2022-07-30T15:38:23.129Z,28.31
2022-07-30T15:40:50.281Z,27.73
2022-07-30T15:43:17.293Z,27.84
2022-07-30T15:45:55.266Z,27.23
2022-07-30T15:48:26.882Z,27.57
2022-07-30T15:51:00.709Z,27.84
2022-07-30T15:53:27.737Z,27.78
2022-07-30T15:55:54.738Z,28.04
2022-07-30T15:58:22.039Z,28.42
2022-07-30T16:00:49.439Z,28.83
2022-07-30T16:03:16.543Z,29.38
2022-07-30T16:05:52.027Z,29.21
2022-07-30T16:08:20.750Z,29.01
2022-07-30T16:10:49.060Z,28.62
2022-07-30T16:13:16.209Z,28.50
2022-07-30T16:15:43.354Z,28.18
2022-07-30T16:18:10.452Z,28.35
2022-07-30T16:20:37.510Z,28.07
2022-07-30T16:23:07.051Z,28.09
2022-07-30T16:25:37.461Z,28.73
2022-07-30T16:28:04.613Z,28.87
2022-07-30T16:30:31.628Z,29.39
2022-07-30T16:32:58.645Z,29.54
2022-07-30T16:35:25.721Z,30.30
2022-07-30T16:37:54.097Z,30.39
2022-07-30T16:40:21.312Z,31.77
2022-07-30T16:42:48.371Z,31.71
2022-07-30T16:45:15.375Z,30.48
2022-07-30T16:47:42.459Z,29.27
2022-07-30T16:50:10.090Z,28.87
2022-07-30T16:52:37.125Z,28.28
2022-07-30T16:55:04.439Z,28.94
2022-07-30T16:57:31.470Z,29.20
2022-07-30T16:59:58.625Z,30.48
2022-07-30T17:02:25.633Z,32.40
2022-07-30T17:04:52.761Z,32.82
2022-07-30T17:07:19.851Z,32.64
2022-07-30T17:09:51.919Z,31.35
2022-07-30T17:12:25.467Z,31.34
2022-07-30T17:14:54.328Z,30.53
2022-07-30T17:17:21.334Z,29.65
2022-07-30T17:19:48.457Z,28.97
2022-07-30T17:22:15.799Z,28.42
2022-07-30T17:24:42.892Z,27.94
2022-07-30T17:27:09.908Z,27.24
2022-07-30T17:29:48.394Z,27.05
2022-07-30T17:32:19.269Z,26.78
2022-07-30T17:34:47.296Z,26.24
2022-07-30T17:37:14.668Z,25.98
2022-07-30T17:40:28.542Z,25.67
2022-07-30T17:42:28.846Z,25.71
2022-07-30T17:44:56.018Z,26.00
2022-07-30T17:47:23.248Z,27.30
2022-07-30T17:49:50.338Z,29.49
2022-07-30T17:52:17.472Z,30.21
2022-07-30T17:54:44.488Z,29.07
2022-07-30T17:57:13.096Z,28.19
2022-07-30T17:59:40.138Z,27.44
2022-07-30T18:02:07.363Z,27.21
2022-07-30T18:04:34.766Z,26.73
2022-07-30T18:07:02.633Z,26.59
2022-07-30T18:09:31.143Z,26.50
2022-07-30T18:12:06.569Z,25.86
2022-07-30T18:14:33.854Z,26.38
2022-07-30T18:17:03.470Z,26.05
2022-07-30T18:19:30.685Z,25.83
2022-07-30T18:21:57.839Z,25.80
2022-07-30T18:24:29.362Z,25.74
2022-07-30T18:26:56.366Z,25.52
2022-07-30T18:29:23.489Z,25.58
2022-07-30T18:31:50.496Z,25.27
2022-07-30T18:34:17.546Z,25.41
2022-07-30T18:36:44.646Z,25.40
2022-07-30T18:39:11.646Z,25.29
2022-07-30T18:41:38.653Z,25.25
2022-07-30T18:44:05.674Z,25.00
2022-07-30T18:46:32.704Z,24.84
2022-07-30T18:49:10.843Z,24.73
2022-07-30T18:51:47.343Z,24.27
2022-07-30T18:54:15.909Z,24.30
2022-07-30T18:56:42.949Z,24.05
2022-07-30T18:59:10.043Z,24.03
2022-07-30T19:01:39.067Z,23.92
2022-07-30T19:04:06.507Z,23.76
2022-07-30T19:06:33.648Z,23.72
2022-07-30T19:09:00.679Z,23.69
2022-07-30T19:11:27.684Z,23.67
2022-07-30T19:13:54.706Z,23.56
2022-07-30T19:16:21.777Z,23.64
2022-07-30T19:18:48.797Z,23.52
2022-07-30T19:21:15.924Z,23.46
2022-07-30T19:23:42.906Z,23.46
2022-07-30T19:26:10.020Z,23.43
2022-07-30T19:28:38.031Z,23.38
2022-07-30T19:31:05.077Z,23.30
2022-07-30T19:33:32.069Z,23.18
2022-07-30T19:35:59.117Z,23.28
2022-07-30T19:38:26.121Z,23.10
2022-07-30T19:40:53.125Z,22.92
2022-07-30T19:43:23.758Z,22.91
2022-07-30T19:45:52.369Z,22.85
2022-07-30T19:48:29.662Z,22.77
2022-07-30T19:50:59.594Z,22.65
2022-07-30T19:53:31.559Z,22.65
2022-07-30T19:56:04.484Z,22.66
2022-07-30T19:58:36.605Z,22.71
2022-07-30T20:01:08.523Z,22.64
2022-07-30T20:03:36.334Z,22.59
2022-07-30T20:06:07.533Z,22.58
2022-07-30T20:08:36.050Z,22.46
2022-07-30T20:11:05.916Z,22.23
2022-07-30T20:13:45.370Z,22.42
2022-07-30T20:16:15.472Z,22.43
2022-07-30T20:18:44.424Z,22.30
2022-07-30T20:21:15.676Z,22.08
2022-07-30T20:23:44.796Z,21.84
2022-07-30T20:26:14.132Z,21.83
2022-07-30T20:28:43.830Z,21.89
2022-07-30T20:31:13.175Z,21.81
2022-07-30T20:33:40.793Z,21.70
2022-07-30T20:36:09.819Z,21.77
2022-07-30T20:38:38.937Z,21.77
2022-07-30T20:41:09.959Z,21.61
2022-07-30T20:43:46.172Z,21.52
2022-07-30T20:46:20.493Z,21.51
2022-07-30T20:48:50.829Z,21.29
2022-07-30T20:51:17.989Z,21.48
2022-07-30T20:53:45.739Z,21.34
2022-07-30T20:56:14.904Z,21.32
2022-07-30T20:58:46.100Z,21.18
2022-07-30T21:01:17.460Z,21.26
2022-07-30T21:03:47.847Z,21.35
2022-07-30T21:06:16.505Z,21.16
2022-07-30T21:08:43.768Z,21.04
2022-07-30T21:11:12.724Z,20.91
2022-07-30T21:13:41.962Z,20.88
2022-07-30T21:16:15.825Z,20.94
2022-07-30T21:18:49.298Z,20.80
2022-07-30T21:21:28.928Z,20.73
2022-07-30T21:24:05.783Z,20.54
2022-07-30T21:26:41.408Z,20.68
2022-07-30T21:29:09.143Z,20.64
2022-07-30T21:32:01.680Z,20.69
2022-07-30T21:34:26.381Z,20.65
2022-07-30T21:36:54.499Z,20.57
2022-07-30T21:39:28.661Z,20.61
2022-07-30T21:41:56.564Z,20.63
2022-07-30T21:44:23.854Z,20.65
2022-07-30T21:46:50.925Z,20.52
2022-07-30T21:49:18.226Z,20.54
2022-07-30T21:51:46.436Z,20.39
2022-07-30T21:54:17.040Z,20.33
2022-07-30T21:56:53.509Z,20.45
2022-07-30T21:59:23.399Z,20.61
2022-07-30T22:01:50.696Z,20.51
2022-07-30T22:04:22.365Z,20.12
2022-07-30T22:06:49.433Z,20.40
2022-07-30T22:09:19.133Z,20.39
2022-07-30T22:12:00.709Z,20.36
2022-07-30T22:14:29.110Z,20.44
2022-07-30T22:16:56.818Z,20.44
2022-07-30T22:19:25.795Z,20.15
2022-07-30T22:21:53.150Z,20.21
2022-07-30T22:24:29.784Z,20.38
2022-07-30T22:27:01.304Z,20.31
2022-07-30T22:29:34.463Z,20.38
2022-07-30T22:32:04.032Z,20.24
2022-07-30T22:34:32.400Z,20.11
2022-07-30T22:36:59.466Z,19.76
2022-07-30T22:42:13.805Z,19.91
2022-07-30T22:44:45.891Z,19.50
2022-07-30T22:47:21.127Z,19.92
2022-07-30T22:50:03.147Z,19.86
2022-07-30T22:52:37.065Z,19.76
2022-07-30T22:55:09.157Z,19.76
2022-07-30T22:57:38.044Z,19.71
2022-07-30T23:00:11.734Z,19.75
2022-07-30T23:02:40.162Z,19.72
2022-07-30T23:05:08.833Z,19.87
2022-07-30T23:07:38.863Z,19.57
2022-07-30T23:10:17.281Z,19.76
2022-07-30T23:12:29.024Z,19.92
2022-07-30T23:12:48.823Z,19.88
2022-07-30T23:15:16.357Z,19.49
2022-07-30T23:17:43.891Z,19.75
2022-07-30T23:20:14.860Z,19.67
2022-07-30T23:22:42.190Z,19.75
2022-07-30T23:25:10.891Z,19.66
2022-07-30T23:27:39.201Z,19.61
2022-07-30T23:30:10.922Z,19.63
2022-07-30T23:32:39.823Z,19.62
2022-07-30T23:35:08.885Z,19.59
2022-07-30T23:37:47.819Z,19.53
2022-07-30T23:40:19.150Z,19.62
2022-07-30T23:42:47.504Z,19.54
2022-07-30T23:45:14.673Z,19.54
2022-07-30T23:48:00.219Z,19.45
2022-07-30T23:50:33.162Z,19.42
2022-07-30T23:53:01.796Z,19.42
2022-07-30T23:55:30.285Z,19.34
2022-07-30T23:57:58.060Z,19.43
